Time;durP1;ratioP1;P1;durP2;ratioP2;P2;SDS_P1;SDS_P2;PMS_P1;PMS_P2;Temp;Humidity;BMP_temperature;BMP_pressure;BME280_temperature;BME280_humidity;BME280_pressure;Samples;Min_cycle;Max_cycle;Signal;HPM_P1;HPM_P2
2021/04/12 00:02:04;;;;;;;34.53;22.17;;;10.30;44.20;;;;;;5095367;28;20104;-72
2021/04/12 00:04:46;;;;;;;38.28;22.45;;;10.30;44.20;;;;;;5095467;28;20098;-73
2021/04/12 00:07:40;;;;;;;34.90;22.30;;;10.30;44.50;;;;;;5094198;28;20448;-73
2021/04/12 00:10:38;;;;;;;37.22;23.50;;;10.30;44.50;;;;;;5094322;28;20085;-73
2021/04/12 00:13:13;;;;;;;41.58;22.73;;;10.30;44.50;;;;;;5041262;28;20036;-72
2021/04/12 00:15:47;;;;;;;41.03;23.48;;;10.30;44.70;;;;;;5091048;28;20446;-73
2021/04/12 00:18:27;;;;;;;38.08;23.30;;;10.30;44.90;;;;;;5105263;28;20020;-73
2021/04/12 00:20:56;;;;;;;39.33;23.00;;;10.30;45.00;;;;;;5087781;28;20031;-73
2021/04/12 00:23:33;;;;;;;37.95;23.67;;;10.30;45.10;;;;;;5094635;28;20019;-72
2021/04/12 00:26:26;;;;;;;41.92;24.65;;;10.20;45.40;;;;;;5093126;28;20020;-73
2021/04/12 00:28:57;;;;;;;40.90;23.88;;;10.20;45.60;;;;;;5093640;28;20059;-72
2021/04/12 00:31:38;;;;;;;36.78;23.73;;;10.20;45.50;;;;;;5093319;28;20016;-72
2021/04/12 00:34:19;;;;;;;37.95;23.40;;;10.30;45.50;;;;;;5093266;28;20019;-72
2021/04/12 00:37:04;;;;;;;38.83;23.65;;;10.30;45.50;;;;;;5081445;28;20058;-73
2021/04/12 00:39:36;;;;;;;39.65;24.35;;;10.30;45.50;;;;;;5093224;28;20046;-73
2021/04/12 00:42:33;;;;;;;38.42;23.33;;;10.30;45.50;;;;;;5094634;28;20023;-72
2021/04/12 00:45:36;;;;;;;36.42;22.83;;;10.30;45.60;;;;;;5093765;28;20870;-73
2021/04/12 00:48:15;;;;;;;39.58;24.40;;;10.30;45.50;;;;;;5093974;28;20023;-72
2021/04/12 00:51:26;;;;;;;43.00;23.95;;;10.30;45.60;;;;;;5094042;28;20106;-72
2021/04/12 00:54:22;;;;;;;38.35;22.92;;;10.30;45.70;;;;;;5046804;28;20123;-72
2021/04/12 00:56:56;;;;;;;38.03;24.08;;;10.30;45.80;;;;;;5094496;28;20052;-72
2021/04/12 00:59:58;;;;;;;41.10;24.80;;;10.30;45.70;;;;;;5094142;28;20498;-73
2021/04/12 01:02:32;;;;;;;37.92;24.50;;;10.30;45.90;;;;;;5094223;28;20400;-72
2021/04/12 01:05:18;;;;;;;36.80;23.20;;;10.30;45.90;;;;;;5093823;28;20024;-73
2021/04/12 01:08:09;;;;;;;37.42;23.45;;;10.30;45.90;;;;;;5094277;28;20035;-73
2021/04/12 01:11:13;;;;;;;42.15;23.80;;;10.30;45.90;;;;;;5093741;28;20051;-72
2021/04/12 01:14:03;;;;;;;37.13;23.50;;;10.30;46.00;;;;;;5093434;28;20028;-73
2021/04/12 01:16:51;;;;;;;41.55;24.17;;;10.20;46.10;;;;;;5093035;28;20429;-71
2021/04/12 01:19:35;;;;;;;41.28;24.20;;;10.20;46.20;;;;;;5081153;28;20028;-73
2021/04/12 01:22:49;;;;;;;40.35;24.77;;;10.20;46.30;;;;;;5093553;28;20432;-73
2021/04/12 01:25:36;;;;;;;49.95;27.13;;;10.10;46.40;;;;;;5092165;28;20028;-73
2021/04/12 01:28:25;;;;;;;41.00;25.17;;;10.10;46.50;;;;;;5080951;28;20024;-73
2021/04/12 01:31:29;;;;;;;38.70;23.88;;;10.00;46.50;;;;;;5093502;28;20422;-73
2021/04/12 01:34:03;;;;;;;44.85;24.80;;;10.00;46.70;;;;;;5093580;28;20024;-72
2021/04/12 01:36:50;;;;;;;38.33;25.25;;;10.00;46.80;;;;;;5080573;28;20020;-72
2021/04/12 01:39:39;;;;;;;46.17;25.45;;;9.90;46.90;;;;;;5079099;28;20103;-73
2021/04/12 01:42:16;;;;;;;47.13;26.52;;;9.90;47.10;;;;;;5082896;28;20531;-72
2021/04/12 01:44:57;;;;;;;64.85;34.28;;;9.90;47.20;;;;;;5091623;28;20089;-73
2021/04/12 01:47:40;;;;;;;67.68;34.25;;;9.90;47.40;;;;;;5081423;28;20031;-73
2021/04/12 01:50:47;;;;;;;59.63;32.10;;;9.90;47.60;;;;;;5080968;28;20026;-73
2021/04/12 01:53:34;;;;;;;46.83;28.08;;;9.80;47.60;;;;;;5043839;28;20035;-72
2021/04/12 01:56:33;;;;;;;47.80;28.88;;;9.90;48.40;;;;;;5080086;28;20104;-72
2021/04/12 01:59:07;;;;;;;45.08;27.52;;;9.80;47.80;;;;;;5073652;28;20024;-73
2021/04/12 02:02:15;;;;;;;43.10;25.42;;;9.90;48.00;;;;;;5072987;28;20091;-73
2021/04/12 02:05:08;;;;;;;38.33;24.25;;;9.80;48.10;;;;;;5088059;28;20496;-73
2021/04/12 02:07:44;;;;;;;41.40;24.30;;;9.80;48.30;;;;;;5092346;28;20040;-72
2021/04/12 02:10:39;;;;;;;40.92;25.95;;;9.70;48.20;;;;;;5095771;28;20020;-73
2021/04/12 02:13:19;;;;;;;42.97;24.60;;;9.70;48.30;;;;;;5094493;28;20466;-76
2021/04/12 02:16:22;;;;;;;40.63;24.67;;;9.70;48.30;;;;;;5093965;28;20481;-72
2021/04/12 02:19:16;;;;;;;42.05;25.63;;;9.70;48.30;;;;;;5092954;28;20047;-73
2021/04/12 02:21:58;;;;;;;39.97;24.65;;;9.70;48.30;;;;;;5095410;28;20024;-73
2021/04/12 02:24:33;;;;;;;44.42;25.98;;;9.70;48.40;;;;;;5098380;28;20020;-72
2021/04/12 02:27:17;;;;;;;45.65;26.75;;;9.60;48.60;;;;;;5107418;28;20020;-73
2021/04/12 02:29:54;;;;;;;42.88;25.67;;;9.60;49.10;;;;;;5098670;28;20028;-72
2021/04/12 02:32:54;;;;;;;40.67;25.27;;;9.50;49.30;;;;;;5096502;28;20081;-73
2021/04/12 02:35:31;;;;;;;44.65;25.52;;;9.50;49.40;;;;;;5095341;28;20027;-73
2021/04/12 02:38:02;;;;;;;42.17;25.23;;;9.50;49.40;;;;;;5096688;28;20024;-72
2021/04/12 02:40:56;;;;;;;40.78;25.15;;;9.40;49.40;;;;;;5096880;28;20118;-72
2021/04/12 02:43:46;;;;;;;40.63;25.38;;;9.40;49.50;;;;;;5084269;28;20350;-75
2021/04/12 02:46:37;;;;;;;42.50;25.48;;;9.40;49.60;;;;;;5095247;28;20466;-72
2021/04/12 02:49:31;;;;;;;48.28;28.30;;;9.40;49.60;;;;;;5096270;28;20028;-72
2021/04/12 02:52:09;;;;;;;55.08;30.23;;;9.30;49.60;;;;;;5084460;28;20115;-72
2021/04/12 02:55:11;;;;;;;54.10;30.15;;;9.30;49.70;;;;;;5096322;28;20028;-72
2021/04/12 02:57:55;;;;;;;58.17;30.73;;;9.30;49.80;;;;;;5096702;28;20100;-72
2021/04/12 03:00:50;;;;;;;55.88;31.55;;;9.30;49.80;;;;;;5083392;28;20034;-72
2021/04/12 03:03:40;;;;;;;45.55;27.73;;;9.30;49.90;;;;;;5094809;28;20111;-72
2021/04/12 03:06:31;;;;;;;41.58;26.33;;;9.20;50.10;;;;;;5094911;28;20127;-72
2021/04/12 03:09:18;;;;;;;40.28;24.95;;;9.20;50.20;;;;;;5084123;28;20039;-72
2021/04/12 03:11:57;;;;;;;44.22;25.08;;;9.20;50.30;;;;;;5094686;28;20112;-72
2021/04/12 03:14:55;;;;;;;41.38;25.40;;;9.20;50.40;;;;;;5094812;28;20016;-72
2021/04/12 03:17:40;;;;;;;41.00;25.45;;;9.20;50.50;;;;;;5086514;28;20342;-72
2021/04/12 03:20:43;;;;;;;44.33;25.30;;;9.10;50.60;;;;;;5095778;28;20177;-73
2021/04/12 03:23:27;;;;;;;46.13;27.05;;;9.10;50.80;;;;;;5095487;28;20031;-72
2021/04/12 03:25:59;;;;;;;46.28;26.30;;;9.10;51.00;;;;;;5093359;28;20012;-72
2021/04/12 03:28:48;;;;;;;43.72;26.95;;;9.10;51.00;;;;;;5096001;28;20354;-72
2021/04/12 03:31:23;;;;;;;43.05;25.92;;;9.00;51.20;;;;;;5094225;28;20040;-74
2021/04/12 03:34:13;;;;;;;42.75;26.05;;;9.00;51.40;;;;;;5075128;28;20034;-72
2021/04/12 03:36:39;;;;;;;43.53;26.05;;;9.00;51.60;;;;;;5083852;28;20084;-72
2021/04/12 03:39:19;;;;;;;45.30;26.33;;;9.00;51.60;;;;;;5095163;28;20024;-72
2021/04/12 03:42:04;;;;;;;41.20;26.30;;;9.00;51.90;;;;;;5094537;28;20548;-73
2021/04/12 03:45:07;;;;;;;40.83;25.33;;;9.00;52.00;;;;;;5094126;28;20045;-72
2021/04/12 03:48:05;;;;;;;42.55;26.35;;;9.00;52.00;;;;;;5081892;28;20458;-71
2021/04/12 03:51:01;;;;;;;45.58;26.75;;;9.00;52.10;;;;;;5085096;28;20020;-70
2021/04/12 03:53:58;;;;;;;41.00;25.52;;;9.00;52.10;;;;;;5088748;28;20028;-73
2021/04/12 03:57:00;;;;;;;45.72;26.35;;;9.00;52.00;;;;;;5092080;28;20032;-70
2021/04/12 03:59:50;;;;;;;46.58;28.02;;;9.10;52.10;;;;;;5088983;28;20020;-70
2021/04/12 04:02:37;;;;;;;51.53;31.05;;;9.10;52.10;;;;;;5094867;28;20365;-71
2021/04/12 04:05:27;;;;;;;47.67;28.30;;;9.10;52.20;;;;;;5093816;28;20057;-72
2021/04/12 04:07:53;;;;;;;47.50;28.50;;;9.20;52.40;;;;;;5043121;28;20036;-78
2021/04/12 04:10:40;;;;;;;46.08;28.20;;;9.20;52.30;;;;;;5037059;28;20025;-82
2021/04/12 04:13:40;;;;;;;42.28;27.50;;;9.20;52.50;;;;;;5056123;28;20021;-77
2021/04/12 04:16:06;;;;;;;45.75;28.77;;;9.20;52.50;;;;;;5064587;28;20452;-76
2021/04/12 04:18:53;;;;;;;46.75;27.55;;;9.20;52.30;;;;;;5052983;28;20021;-76
2021/04/12 04:21:18;;;;;;;46.80;27.15;;;9.30;52.50;;;;;;5049463;28;20036;-82
2021/04/12 04:24:00;;;;;;;44.58;28.10;;;9.30;52.50;;;;;;5054985;28;20097;-80
2021/04/12 04:26:35;;;;;;;43.00;27.80;;;9.30;52.60;;;;;;5065832;28;20014;-82
2021/04/12 04:29:39;;;;;;;43.28;27.35;;;9.30;52.60;;;;;;5071833;28;20012;-79
2021/04/12 04:32:32;;;;;;;44.10;27.45;;;9.40;52.70;;;;;;5068462;28;20009;-81
2021/04/12 04:35:35;;;;;;;45.72;28.42;;;9.40;52.70;;;;;;5070032;28;20029;-80
2021/04/12 04:38:29;;;;;;;49.00;29.63;;;9.40;52.70;;;;;;5062880;28;20108;-87
2021/04/12 04:41:10;;;;;;;46.00;28.60;;;9.40;52.60;;;;;;5037468;28;20400;-86
2021/04/12 04:44:03;;;;;;;53.95;31.33;;;9.50;52.50;;;;;;5044005;28;20029;-90
2021/04/12 04:46:37;;;;;;;67.32;36.03;;;9.50;52.60;;;;;;5045782;28;20027;-90
2021/04/12 04:49:34;;;;;;;64.13;35.65;;;9.60;52.50;;;;;;5047658;28;20029;-79
2021/04/12 04:52:18;;;;;;;;;;;9.60;52.50;;;;;;5052475;28;20071;-79
2021/04/12 04:55:12;;;;;;;53.47;30.70;;;9.50;52.00;;;;;;5043730;28;19901;-76
2021/04/12 04:57:50;;;;;;;46.35;27.95;;;9.50;52.30;;;;;;5041774;28;20368;-93
2021/04/12 05:00:25;;;;;;;46.05;28.17;;;9.50;52.30;;;;;;5048256;28;20100;-75
2021/04/12 05:03:08;;;;;;;45.03;29.17;;;9.50;52.30;;;;;;5046043;28;20025;-75
2021/04/12 05:05:53;;;;;;;50.50;30.05;;;9.50;52.30;;;;;;5047481;28;20021;-74
2021/04/12 05:08:56;;;;;;;58.53;32.33;;;9.50;52.20;;;;;;5088904;28;20034;-77
2021/04/12 05:11:46;;;;;;;47.30;30.75;;;9.50;52.20;;;;;;5087120;28;20020;-69
2021/04/12 05:14:49;;;;;;;45.90;31.17;;;9.50;52.20;;;;;;5091071;28;20078;-70
2021/04/12 05:17:44;;;;;;;46.53;30.27;;;9.60;52.20;;;;;;5086078;28;20450;-79
2021/04/12 05:20:26;;;;;;;53.97;29.98;;;9.60;52.10;;;;;;5090985;28;20027;-74
2021/04/12 05:23:17;;;;;;;46.15;26.50;;;9.60;52.10;;;;;;5084828;28;20042;-75
2021/04/12 05:26:22;;;;;;;42.55;27.85;;;9.70;52.20;;;;;;5088012;28;20401;-79
2021/04/12 05:28:58;;;;;;;44.30;27.48;;;9.70;52.30;;;;;;5090789;28;20114;-75
2021/04/12 05:31:53;;;;;;;45.97;29.75;;;9.70;52.50;;;;;;5088427;28;20020;-75
2021/04/12 05:34:53;;;;;;;46.55;28.70;;;9.70;52.80;;;;;;5084824;28;20454;-75
2021/04/12 05:37:56;;;;;;;45.92;29.90;;;9.70;53.10;;;;;;5077458;28;20020;-76
2021/04/12 05:40:50;;;;;;;45.40;28.38;;;9.70;53.50;;;;;;5089373;28;20031;-74
2021/04/12 05:43:37;;;;;;;45.53;29.08;;;9.70;53.80;;;;;;5035325;28;20058;-75
2021/04/12 05:46:41;;;;;;;46.50;30.58;;;9.60;54.30;;;;;;5088433;28;20119;-75
2021/04/12 05:49:28;;;;;;;50.92;33.13;;;9.60;55.30;;;;;;5086216;28;20411;-70
2021/04/12 05:52:02;;;;;;;57.20;36.33;;;9.50;55.90;;;;;;5088666;28;20031;-73
2021/04/12 05:54:46;;;;;;;69.07;40.78;;;9.40;56.40;;;;;;5090678;28;20047;-78
2021/04/12 05:57:35;;;;;;;60.72;37.25;;;9.30;57.00;;;;;;5088505;28;20034;-78
2021/04/12 06:00:24;;;;;;;49.40;32.97;;;9.30;57.40;;;;;;5083508;28;20024;-80
2021/04/12 06:03:08;;;;;;;55.15;34.17;;;9.20;57.90;;;;;;5085212;28;20024;-79
2021/04/12 06:06:07;;;;;;;53.20;33.28;;;9.20;58.40;;;;;;5090929;28;20070;-80
2021/04/12 06:08:48;;;;;;;50.63;32.03;;;9.20;59.10;;;;;;5084377;28;20031;-80
2021/04/12 06:11:39;;;;;;;51.38;32.75;;;9.30;59.50;;;;;;5090702;28;20060;-80
2021/04/12 06:14:49;;;;;;;59.40;34.08;;;9.30;59.70;;;;;;5086391;28;20052;-79
2021/04/12 06:17:50;;;;;;;52.33;31.38;;;9.30;60.10;;;;;;5088379;28;20100;-79
2021/04/12 06:20:32;;;;;;;51.38;30.80;;;9.30;60.50;;;;;;5081688;28;20030;-78
2021/04/12 06:23:20;;;;;;;55.60;34.00;;;9.40;60.60;;;;;;5079904;28;20020;-80
2021/04/12 06:25:48;;;;;;;47.47;28.58;;;9.40;60.90;;;;;;5074325;28;20367;-80
2021/04/12 06:28:20;;;;;;;43.35;28.48;;;9.50;61.10;;;;;;5093382;28;20057;-79
2021/04/12 06:31:23;;;;;;;47.95;29.35;;;9.50;61.70;;;;;;5075634;28;20039;-80
2021/04/12 06:34:10;;;;;;;48.03;28.90;;;9.50;62.00;;;;;;5086439;28;20339;-80
2021/04/12 06:37:06;;;;;;;41.83;27.33;;;9.50;62.10;;;;;;5080293;28;20411;-80
2021/04/12 06:39:54;;;;;;;41.35;27.13;;;9.50;62.30;;;;;;5097090;28;20020;-80
2021/04/12 06:42:48;;;;;;;41.95;26.90;;;9.40;62.40;;;;;;5102404;28;20080;-78
2021/04/12 06:45:26;;;;;;;42.50;28.17;;;9.40;62.80;;;;;;5104305;28;20087;-79
2021/04/12 06:48:26;;;;;;;41.72;28.52;;;9.30;63.10;;;;;;5116487;28;20042;-80
2021/04/12 06:50:54;;;;;;;48.38;30.52;;;9.30;63.40;;;;;;5116212;28;20012;-79
2021/04/12 06:53:57;;;;;;;52.60;31.23;;;9.20;63.50;;;;;;5098150;28;20027;-79
2021/04/12 06:56:57;;;;;;;55.17;34.75;;;9.20;63.90;;;;;;5091767;28;20016;-79
2021/04/12 06:59:48;;;;;;;57.70;33.70;;;9.20;64.20;;;;;;5092346;28;20072;-79
2021/04/12 07:02:51;;;;;;;54.17;33.60;;;9.10;64.60;;;;;;5082580;28;20062;-79
2021/04/12 07:05:41;;;;;;;49.67;33.38;;;9.00;64.90;;;;;;5091414;28;20354;-79
2021/04/12 07:08:41;;;;;;;49.35;31.85;;;9.00;65.50;;;;;;5053338;28;20033;-80
2021/04/12 07:11:29;;;;;;;49.03;31.90;;;9.00;65.90;;;;;;5053519;28;20036;-80
2021/04/12 07:14:31;;;;;;;49.58;31.10;;;8.90;66.40;;;;;;5054785;28;20471;-79
2021/04/12 07:17:15;;;;;;;53.55;34.20;;;8.90;66.60;;;;;;5054015;28;20581;-79
2021/04/12 07:19:53;;;;;;;45.70;30.92;;;8.90;66.80;;;;;;5041993;28;20075;-79
2021/04/12 07:22:44;;;;;;;48.22;32.10;;;8.80;67.40;;;;;;5040651;28;20028;-79
2021/04/12 07:25:40;;;;;;;52.35;33.55;;;8.80;67.70;;;;;;5055200;28;20024;-79
2021/04/12 07:28:50;;;;;;;49.70;32.22;;;8.80;68.00;;;;;;5054892;28;20031;-79
2021/04/12 07:31:53;;;;;;;51.28;32.05;;;8.80;67.70;;;;;;4999342;28;20037;-80
2021/04/12 07:34:45;;;;;;;66.25;38.00;;;8.80;67.60;;;;;;5013212;28;20025;-80
2021/04/12 07:37:49;;;;;;;68.07;39.13;;;8.90;67.80;;;;;;5045903;28;20033;-80
2021/04/12 07:40:53;;;;;;;73.10;40.83;;;8.90;67.90;;;;;;5054143;28;20029;-80
2021/04/12 07:43:52;;;;;;;63.35;38.85;;;8.90;68.10;;;;;;5040789;28;20021;-80
2021/04/12 07:46:30;;;;;;;58.05;35.92;;;8.90;68.20;;;;;;5053821;28;20024;-80
2021/04/12 07:49:38;;;;;;;50.30;33.35;;;9.00;68.10;;;;;;5042077;28;20029;-80
2021/04/12 07:52:28;;;;;;;46.35;32.53;;;9.00;68.30;;;;;;5015451;28;20039;-79
2021/04/12 07:55:09;;;;;;;46.15;30.77;;;9.10;68.40;;;;;;5053719;28;20435;-80
2021/04/12 07:58:03;;;;;;;46.47;30.65;;;9.20;68.30;;;;;;5053632;28;20025;-79
2021/04/12 08:01:03;;;;;;;45.40;31.52;;;9.20;68.20;;;;;;5042243;28;20029;-80
2021/04/12 08:03:59;;;;;;;43.22;30.13;;;9.30;68.30;;;;;;5056084;28;20017;-79
2021/04/12 08:06:43;;;;;;;43.60;30.70;;;9.50;68.20;;;;;;5069916;28;20047;-80
2021/04/12 08:09:42;;;;;;;45.08;29.63;;;9.50;67.90;;;;;;5095381;28;20077;-79
2021/04/12 08:12:45;;;;;;;39.15;27.95;;;9.60;68.00;;;;;;5080247;28;20047;-79
2021/04/12 08:15:42;;;;;;;39.88;28.15;;;10.00;68.60;;;;;;5093697;28;20016;-80
2021/04/12 08:18:29;;;;;;;37.95;26.65;;;10.50;68.40;;;;;;5094236;28;20020;-79
2021/04/12 08:21:10;;;;;;;35.72;27.13;;;10.80;67.10;;;;;;5082130;28;20020;-79
2021/04/12 08:23:48;;;;;;;37.92;26.70;;;11.00;66.40;;;;;;5094425;28;20102;-79
2021/04/12 08:26:22;;;;;;;41.42;28.15;;;11.30;66.00;;;;;;5080413;28;20040;-79
2021/04/12 08:29:18;;;;;;;38.08;26.27;;;11.50;65.80;;;;;;5093568;28;20031;-79
2021/04/12 08:32:19;;;;;;;45.42;30.02;;;11.70;65.40;;;;;;5083415;28;20024;-79
2021/04/12 08:35:08;;;;;;;41.50;29.15;;;11.90;64.70;;;;;;5081199;28;20035;-79
2021/04/12 08:38:11;;;;;;;40.40;27.65;;;12.10;64.20;;;;;;5093333;28;20028;-81
2021/04/12 08:40:56;;;;;;;39.03;27.33;;;12.30;63.50;;;;;;5093768;28;20149;-79
2021/04/12 08:43:24;;;;;;;39.67;28.33;;;12.40;62.70;;;;;;5080151;28;20024;-75
2021/04/12 08:46:05;;;;;;;38.28;28.08;;;12.40;62.30;;;;;;5094334;28;20031;-69
2021/04/12 08:49:08;;;;;;;36.50;26.25;;;12.50;62.10;;;;;;5082339;28;20031;-69
2021/04/12 08:51:59;;;;;;;39.15;28.00;;;12.60;61.50;;;;;;5094338;28;20024;-68
2021/04/12 08:54:46;;;;;;;39.10;27.90;;;12.60;61.30;;;;;;5093842;28;20048;-69
2021/04/12 08:57:30;;;;;;;41.20;28.23;;;12.50;61.00;;;;;;5083224;28;20032;-68
2021/04/12 09:00:13;;;;;;;35.92;27.52;;;12.60;61.20;;;;;;5092369;28;20015;-68
2021/04/12 09:02:45;;;;;;;40.55;28.17;;;12.60;61.10;;;;;;5093997;28;20023;-69
2021/04/12 09:05:55;;;;;;;39.45;27.33;;;12.50;61.20;;;;;;5092506;28;20016;-68
2021/04/12 09:08:30;;;;;;;40.47;28.77;;;12.60;61.20;;;;;;5073203;28;20425;-68
2021/04/12 09:11:02;;;;;;;37.85;28.15;;;12.60;61.10;;;;;;5084145;28;20415;-69
2021/04/12 09:13:49;;;;;;;39.97;29.30;;;12.70;61.20;;;;;;5078551;28;20069;-68
2021/04/12 09:16:27;;;;;;;40.22;28.27;;;12.80;61.10;;;;;;5093557;28;20031;-68
2021/04/12 09:19:23;;;;;;;36.47;27.35;;;12.90;61.00;;;;;;5092949;28;20042;-69
2021/04/12 09:22:19;;;;;;;38.25;28.70;;;13.10;60.80;;;;;;5096185;28;20038;-66
2021/04/12 09:24:55;;;;;;;37.73;26.67;;;13.10;60.60;;;;;;5096711;28;20373;-69
2021/04/12 09:27:46;;;;;;;36.10;26.08;;;13.00;60.30;;;;;;5098262;28;20341;-67
2021/04/12 09:30:44;;;;;;;37.40;26.42;;;12.90;60.20;;;;;;5091194;28;20020;-67
2021/04/12 09:33:40;;;;;;;36.67;26.80;;;12.70;60.30;;;;;;5089341;28;20123;-67
2021/04/12 09:36:12;;;;;;;37.30;26.90;;;12.60;60.50;;;;;;5093132;28;20069;-66
2021/04/12 09:38:59;;;;;;;36.75;26.95;;;12.50;60.80;;;;;;5093275;28;20082;-66
2021/04/12 09:41:50;;;;;;;37.92;28.00;;;12.40;61.10;;;;;;5091784;28;20026;-67
2021/04/12 09:44:46;;;;;;;37.63;26.13;;;12.50;61.50;;;;;;5088217;28;20028;-67
2021/04/12 09:47:33;;;;;;;36.45;25.90;;;12.50;61.60;;;;;;5092855;28;20028;-67
2021/04/12 09:50:36;;;;;;;44.25;29.83;;;12.50;61.40;;;;;;5086889;28;20024;-67
2021/04/12 09:53:29;;;;;;;44.58;29.48;;;12.40;61.60;;;;;;5089939;28;20027;-67
2021/04/12 09:56:16;;;;;;;38.75;29.17;;;12.30;61.70;;;;;;5085809;28;20039;-66
2021/04/12 09:59:03;;;;;;;42.80;29.02;;;12.20;61.90;;;;;;5088444;28;20028;-68
2021/04/12 10:01:44;;;;;;;38.35;28.75;;;12.10;62.50;;;;;;5090968;28;20012;-68
2021/04/12 10:04:35;;;;;;;37.08;28.23;;;12.00;62.90;;;;;;5086936;28;20024;-66
2021/04/12 10:07:32;;;;;;;40.72;28.42;;;12.10;63.10;;;;;;5053588;28;20043;-66
2021/04/12 10:10:04;;;;;;;38.85;28.58;;;12.10;63.10;;;;;;5091685;28;20324;-66
2021/04/12 10:12:54;;;;;;;38.58;27.30;;;12.10;63.30;;;;;;5082091;28;20032;-66
2021/04/12 10:15:35;;;;;;;35.15;26.08;;;12.10;63.30;;;;;;5092432;28;20016;-66
2021/04/12 10:18:12;;;;;;;38.47;27.17;;;12.00;63.40;;;;;;5091825;28;20028;-66
2021/04/12 10:21:04;;;;;;;33.75;25.33;;;12.00;63.50;;;;;;5090182;28;20035;-66
2021/04/12 10:23:33;;;;;;;36.22;26.42;;;11.90;63.70;;;;;;5054577;28;20465;-69
2021/04/12 10:26:05;;;;;;;37.05;27.60;;;11.90;63.80;;;;;;5092444;28;20023;-67
2021/04/12 10:28:46;;;;;;;35.05;25.85;;;12.00;64.10;;;;;;5093032;28;20110;-66
2021/04/12 10:31:30;;;;;;;37.50;26.80;;;12.00;63.90;;;;;;5091021;28;20052;-66
2021/04/12 10:34:20;;;;;;;35.47;26.38;;;12.00;63.90;;;;;;5091572;28;20047;-67
2021/04/12 10:36:49;;;;;;;32.30;25.02;;;12.00;64.10;;;;;;5081840;28;20357;-65
2021/04/12 10:39:57;;;;;;;35.92;27.45;;;12.00;64.80;;;;;;5092221;28;20101;-66
2021/04/12 10:42:31;;;;;;;34.42;25.55;;;12.00;64.10;;;;;;5042919;28;20037;-65
2021/04/12 10:45:03;;;;;;;37.15;25.85;;;12.00;64.30;;;;;;5082942;28;20020;-66
2021/04/12 10:48:03;;;;;;;36.25;26.10;;;12.00;64.40;;;;;;5096422;28;20016;-66
2021/04/12 10:50:35;;;;;;;35.00;25.65;;;12.00;64.30;;;;;;5085137;28;20028;-66
2021/04/12 10:53:06;;;;;;;32.90;23.95;;;12.00;64.30;;;;;;5094431;28;20377;-66
2021/04/12 10:55:46;;;;;;;38.63;25.27;;;11.90;64.40;;;;;;5096724;28;20020;-66
2021/04/12 10:58:42;;;;;;;38.13;25.52;;;11.90;64.70;;;;;;5094891;28;20066;-67
2021/04/12 11:01:28;;;;;;;38.88;26.17;;;12.00;65.20;;;;;;5095945;28;20024;-67
2021/04/12 11:04:42;;;;;;;33.25;24.20;;;12.00;65.20;;;;;;5106833;28;20032;-67
2021/04/12 11:07:42;;;;;;;33.10;24.00;;;12.10;64.90;;;;;;5089050;28;20043;-67
2021/04/12 11:10:20;;;;;;;37.53;25.30;;;12.10;64.50;;;;;;5094825;28;20024;-67
2021/04/12 11:13:01;;;;;;;36.33;24.02;;;12.10;65.10;;;;;;5095857;28;20055;-67
2021/04/12 11:15:45;;;;;;;44.08;28.90;;;12.10;64.50;;;;;;5094495;28;20016;-66
2021/04/12 11:18:17;;;;;;;49.20;28.95;;;12.20;64.70;;;;;;5082122;28;20020;-67
2021/04/12 11:21:05;;;;;;;42.03;27.13;;;12.20;64.60;;;;;;5095981;28;20024;-66
2021/04/12 11:23:54;;;;;;;40.22;27.25;;;12.20;64.40;;;;;;5091748;28;20055;-67
2021/04/12 11:26:43;;;;;;;44.90;27.00;;;12.30;64.40;;;;;;5085031;28;20028;-67
2021/04/12 11:29:26;;;;;;;37.50;23.35;;;12.30;64.40;;;;;;5095494;28;20035;-66
2021/04/12 11:32:26;;;;;;;43.90;28.75;;;12.30;64.20;;;;;;5094469;28;20051;-66
2021/04/12 11:35:07;;;;;;;32.95;23.20;;;12.20;64.30;;;;;;5094645;28;20028;-66
2021/04/12 11:37:48;;;;;;;47.80;29.73;;;12.20;64.30;;;;;;5081785;28;20021;-66
2021/04/12 11:40:22;;;;;;;49.30;34.35;;;12.20;64.60;;;;;;5094654;28;20028;-66
2021/04/12 11:42:59;;;;;;;31.35;22.25;;;12.10;64.80;;;;;;5095852;28;20043;-66
2021/04/12 11:45:32;;;;;;;33.97;24.00;;;12.10;64.80;;;;;;5096248;28;20027;-66
2021/04/12 11:48:05;;;;;;;33.67;23.60;;;12.00;64.80;;;;;;5095783;28;20396;-65
2021/04/12 11:50:35;;;;;;;32.10;21.52;;;12.00;65.10;;;;;;5096569;28;20027;-66
2021/04/12 11:53:16;;;;;;;34.15;23.23;;;12.00;65.30;;;;;;5096903;28;20039;-67
2021/04/12 11:56:19;;;;;;;36.45;25.52;;;12.10;65.60;;;;;;5095608;28;20020;-66
2021/04/12 11:58:56;;;;;;;45.63;29.27;;;12.10;65.40;;;;;;5083508;28;20485;-66
2021/04/12 12:01:33;;;;;;;38.17;25.45;;;12.10;65.40;;;;;;5095119;28;20431;-66
2021/04/12 12:04:17;;;;;;;37.33;24.90;;;12.10;65.40;;;;;;5095894;28;20073;-67
2021/04/12 12:07:21;;;;;;;39.28;26.42;;;12.10;65.30;;;;;;5095064;28;20051;-66
2021/04/12 12:09:54;;;;;;;34.72;23.55;;;12.20;65.60;;;;;;5094841;28;20020;-67
2021/04/12 12:12:20;;;;;;;35.55;24.95;;;12.20;65.70;;;;;;5094792;28;20077;-67
2021/04/12 12:14:51;;;;;;;37.97;24.45;;;12.30;65.80;;;;;;5093762;28;20024;-67
2021/04/12 12:17:21;;;;;;;39.30;25.52;;;12.40;65.80;;;;;;5081112;28;20087;-66
2021/04/12 12:19:49;;;;;;;39.33;23.58;;;12.40;65.80;;;;;;5093818;28;20111;-67
2021/04/12 12:22:26;;;;;;;36.10;23.48;;;12.50;65.70;;;;;;5094309;28;20450;-67
2021/04/12 12:25:20;;;;;;;36.35;22.55;;;12.50;65.80;;;;;;5094390;28;20103;-67
2021/04/12 12:28:24;;;;;;;33.38;21.90;;;12.50;65.70;;;;;;5094246;28;20081;-64
2021/04/12 12:30:53;;;;;;;45.15;30.23;;;12.70;66.20;;;;;;5094155;28;20081;-65
2021/04/12 12:33:31;;;;;;;39.03;26.70;;;12.70;65.40;;;;;;5094576;28;20023;-65
2021/04/12 12:36:12;;;;;;;39.05;27.40;;;12.80;65.20;;;;;;5094352;28;20016;-65
2021/04/12 12:39:12;;;;;;;39.05;25.13;;;12.80;65.00;;;;;;5094521;28;20050;-65
2021/04/12 12:41:45;;;;;;;28.13;21.05;;;12.90;65.20;;;;;;5081688;28;20377;-66
2021/04/12 12:44:14;;;;;;;37.83;21.98;;;13.00;65.70;;;;;;5094597;28;20028;-66
2021/04/12 12:46:43;;;;;;;27.60;19.13;;;13.10;64.80;;;;;;5094346;28;20386;-66
2021/04/12 12:49:21;;;;;;;27.23;20.10;;;13.10;64.60;;;;;;5092516;28;20016;-66
2021/04/12 12:51:57;;;;;;;30.65;21.67;;;13.10;64.40;;;;;;5080892;28;20032;-66
2021/04/12 12:54:40;;;;;;;35.15;24.88;;;13.00;64.40;;;;;;5094076;28;20028;-69
2021/04/12 12:57:30;;;;;;;34.10;22.65;;;13.00;64.60;;;;;;5093890;28;20366;-66
2021/04/12 13:00:40;;;;;;;28.30;20.27;;;13.00;64.70;;;;;;5093590;28;20023;-67
2021/04/12 13:03:38;;;;;;;28.02;20.20;;;13.00;64.50;;;;;;5092742;28;20032;-66
2021/04/12 13:06:29;;;;;;;28.52;20.15;;;13.00;64.40;;;;;;5085024;28;20122;-66
2021/04/12 13:09:21;;;;;;;33.50;22.50;;;12.90;64.60;;;;;;5081196;28;20106;-67
2021/04/12 13:12:15;;;;;;;37.17;21.42;;;12.90;64.60;;;;;;5080737;28;20032;-65
2021/04/12 13:14:48;;;;;;;37.03;22.88;;;12.90;64.50;;;;;;5092475;28;20366;-67
2021/04/12 13:17:33;;;;;;;32.70;22.45;;;12.80;64.60;;;;;;5092398;28;20030;-66
2021/04/12 13:20:14;;;;;;;45.53;26.80;;;12.80;64.70;;;;;;5092455;28;20415;-65
2021/04/12 13:22:43;;;;;;;43.65;29.15;;;12.70;64.70;;;;;;5093699;28;20031;-66
2021/04/12 13:25:17;;;;;;;55.25;33.63;;;12.70;64.70;;;;;;5091672;28;20412;-68
2021/04/12 13:27:50;;;;;;;50.50;31.80;;;12.80;64.90;;;;;;5093184;28;20024;-66
2021/04/12 13:30:24;;;;;;;50.75;31.20;;;12.80;64.90;;;;;;5093450;28;20284;-66
2021/04/12 13:32:58;;;;;;;54.20;32.10;;;12.70;64.70;;;;;;5093352;28;20072;-66
2021/04/12 13:35:29;;;;;;;32.85;23.00;;;12.70;64.90;;;;;;5093598;28;20390;-68
2021/04/12 13:38:18;;;;;;;28.25;19.60;;;12.70;64.80;;;;;;5091705;28;20096;-66
2021/04/12 13:40:55;;;;;;;27.33;20.00;;;12.70;64.80;;;;;;5092209;28;20454;-66
2021/04/12 13:43:29;;;;;;;43.40;22.33;;;12.70;64.90;;;;;;5079637;28;20028;-66
2021/04/12 13:45:55;;;;;;;30.38;20.92;;;12.70;65.00;;;;;;5091676;28;20024;-66
2021/04/12 13:48:28;;;;;;;32.80;22.98;;;12.70;65.10;;;;;;5093355;28;20091;-65
2021/04/12 13:51:01;;;;;;;28.95;20.27;;;12.60;65.20;;;;;;5091852;28;20080;-70
2021/04/12 13:53:46;;;;;;;28.70;20.00;;;12.60;65.10;;;;;;5093557;28;20020;-66
2021/04/12 13:56:31;;;;;;;31.48;21.98;;;12.60;64.90;;;;;;5091965;28;20043;-66
2021/04/12 13:59:01;;;;;;;30.85;21.05;;;12.50;64.80;;;;;;5092778;28;20454;-66
2021/04/12 14:01:50;;;;;;;28.70;20.27;;;12.50;64.90;;;;;;5092920;28;20074;-66
2021/04/12 14:04:20;;;;;;;45.55;31.92;;;12.40;65.00;;;;;;5093210;28;20457;-65
2021/04/12 14:07:17;;;;;;;43.40;32.25;;;12.30;65.20;;;;;;5092934;28;20144;-65
2021/04/12 14:09:53;;;;;;;45.10;32.92;;;12.30;65.50;;;;;;5075932;28;20105;-65